NCAR-RAP Real-Time Weather Data

Output produced by METARs form (08 May 2021  16:37 UTC)
found at http://weather.rap.ucar.edu/surface/
 
KCAG 081553Z AUTO 00000KT 10SM BKN046 OVC055 11/01 A2997 RMK AO2 SLP096 T01110006
KCAG 081453Z AUTO 34003KT 10SM BKN060 BKN075 OVC090 11/ A2999 RMK AO2 SLP106 T0106 51009 $
KCAG 081353Z AUTO 00000KT 10SM FEW050 OVC080 08/ A2998 RMK AO2 SLP100 T0083 $
KCAG 081253Z AUTO 20005KT 10SM FEW060 OVC075 07/ A2997 RMK AO2 SLP089 T0067 $
KCAG 081153Z AUTO 33005KT 10SM BKN100 OVC120 06/ A2995 RMK AO2 SLP085 T0061 10128 20056 50003 $
KCAG 081053Z AUTO 19003KT 10SM CLR 06/ A2996 RMK AO2 SLP083 T0061 $
KCAG 080953Z AUTO 25004KT 10SM CLR 08/00 A2996 RMK AO2 SLP081 T00780000 $
KCAG 080853Z AUTO 32010KT 10SM CLR 10/00 A2995 RMK AO2 SLP068 T01000000 51036
KCAG 080753Z AUTO 27015KT 10SM FEW120 12/01 A2992 RMK AO2 SLP058 T01220006
KCAG 080653Z AUTO 30007KT 10SM CLR 08/M04 A2985 RMK AO2 SLP044 T00781039 402721006
KCAG 080553Z AUTO 00000KT 10SM CLR 07/M06 A2982 RMK AO2 SLP032 T00721056 10256 20072 58002
KCAG 080453Z AUTO 31006KT 10SM CLR 13/M09 A2982 RMK AO2 SLP030 T01331094
KCAG 080353Z AUTO 18013KT 10SM CLR 18/M13 A2983 RMK AO2 SLP029 T01781128
KCAG 080253Z AUTO 20008KT 10SM CLR 16/M12 A2983 RMK AO2 SLP037 T01611122 55001